createdAt,value
2018-06-16T00:00:46.155Z,20.70
2018-06-16T00:03:14.319Z,20.70
2018-06-16T00:05:42.440Z,20.70
2018-06-16T00:08:10.552Z,20.70
2018-06-16T00:10:38.636Z,20.70
2018-06-16T00:13:06.752Z,20.70
2018-06-16T00:15:34.824Z,20.70
2018-06-16T00:18:02.923Z,20.70
2018-06-16T00:20:31.054Z,20.70
2018-06-16T00:22:59.155Z,20.70
2018-06-16T00:25:27.272Z,20.60
2018-06-16T00:27:55.392Z,20.60
2018-06-16T00:30:23.495Z,20.60
2018-06-16T00:32:51.607Z,20.60
2018-06-16T00:35:19.702Z,20.50
2018-06-16T00:37:47.841Z,20.50
2018-06-16T00:40:15.939Z,20.50
2018-06-16T00:42:44.039Z,20.40
2018-06-16T00:45:12.139Z,20.30
2018-06-16T00:47:40.301Z,20.30
2018-06-16T00:50:08.420Z,20.30
2018-06-16T00:52:36.715Z,20.30
2018-06-16T00:55:05.363Z,20.30
2018-06-16T00:57:48.051Z,20.30
2018-06-16T01:00:17.387Z,20.30
2018-06-16T01:02:45.676Z,20.30
2018-06-16T01:05:13.776Z,20.30
2018-06-16T01:07:41.925Z,20.20
2018-06-16T01:10:11.004Z,20.20
2018-06-16T01:12:39.511Z,20.10
2018-06-16T01:15:07.824Z,20.10
2018-06-16T01:17:35.935Z,20.00
2018-06-16T01:20:04.567Z,20.00
2018-06-16T01:22:32.675Z,20.00
2018-06-16T01:25:00.825Z,20.00
2018-06-16T01:27:29.527Z,20.00
2018-06-16T01:29:57.849Z,19.90
2018-06-16T01:32:25.936Z,19.90
2018-06-16T01:34:54.035Z,19.90
2018-06-16T01:37:22.120Z,19.90
2018-06-16T01:39:50.219Z,19.90
2018-06-16T01:42:18.300Z,19.80
2018-06-16T01:44:46.391Z,19.80
2018-06-16T01:47:14.493Z,19.80
2018-06-16T01:49:42.556Z,19.80
2018-06-16T01:54:38.619Z,19.70
2018-06-16T01:57:06.696Z,19.70
2018-06-16T01:59:34.800Z,19.80
2018-06-16T02:02:08.623Z,19.70
2018-06-16T02:04:36.714Z,19.80
2018-06-16T02:07:04.844Z,19.70
2018-06-16T02:12:00.895Z,19.80
2018-06-16T02:14:28.983Z,19.80
2018-06-16T02:16:57.348Z,19.80
2018-06-16T02:19:25.437Z,19.80
2018-06-16T02:24:21.430Z,19.80
2018-06-16T02:26:49.527Z,19.70
2018-06-16T02:29:17.621Z,19.70
2018-06-16T02:34:13.598Z,19.70
2018-06-16T02:36:41.676Z,19.70
2018-06-16T02:39:11.091Z,19.60
2018-06-16T02:41:39.215Z,19.60
2018-06-16T02:44:07.327Z,19.60
2018-06-16T02:46:35.411Z,19.60
2018-06-16T02:49:03.507Z,19.60
2018-06-16T02:51:31.688Z,19.60
2018-06-16T02:53:59.767Z,19.60
2018-06-16T02:56:27.861Z,19.60
2018-06-16T02:58:55.981Z,19.50
2018-06-16T03:01:24.288Z,19.60
2018-06-16T03:03:52.389Z,19.50
2018-06-16T03:06:20.536Z,19.50
2018-06-16T03:08:48.650Z,19.50
2018-06-16T03:11:16.743Z,19.50
2018-06-16T03:13:44.843Z,19.50
2018-06-16T03:16:12.943Z,19.50
2018-06-16T03:18:41.051Z,19.40
2018-06-16T03:21:09.359Z,19.40
2018-06-16T03:23:37.547Z,19.40
2018-06-16T03:26:05.756Z,19.40
2018-06-16T03:28:33.971Z,19.40
2018-06-16T03:31:02.062Z,19.40
2018-06-16T03:33:30.295Z,19.40
2018-06-16T03:35:58.388Z,19.40
2018-06-16T03:40:54.644Z,19.40
2018-06-16T03:43:22.811Z,19.40
2018-06-16T03:45:50.913Z,19.40
2018-06-16T03:48:19.016Z,19.40
2018-06-16T03:50:47.088Z,19.40
2018-06-16T03:53:15.200Z,19.40
2018-06-16T03:55:43.301Z,19.40
2018-06-16T03:58:11.429Z,19.40
2018-06-16T04:00:39.535Z,19.40
2018-06-16T04:03:07.752Z,19.40
2018-06-16T04:05:35.857Z,19.40
2018-06-16T04:08:03.955Z,19.40
2018-06-16T04:10:32.036Z,19.40
2018-06-16T04:13:00.159Z,19.50
2018-06-16T04:17:56.224Z,19.50
2018-06-16T04:20:24.320Z,19.50
2018-06-16T04:22:52.419Z,19.60
2018-06-16T04:25:20.502Z,19.60
2018-06-16T04:27:48.616Z,19.60
2018-06-16T04:30:16.728Z,19.70
2018-06-16T04:32:44.846Z,19.70
2018-06-16T04:37:40.909Z,19.70
2018-06-16T04:40:09.030Z,19.80
2018-06-16T04:42:37.145Z,19.80
2018-06-16T04:45:05.633Z,19.80
2018-06-16T04:47:33.845Z,19.90
2018-06-16T04:50:01.951Z,19.90
2018-06-16T04:52:30.052Z,19.90
2018-06-16T04:54:58.148Z,19.90
2018-06-16T04:57:26.351Z,20.00
2018-06-16T04:59:54.451Z,20.00
2018-06-16T05:02:22.556Z,20.00
2018-06-16T05:04:50.634Z,20.10
2018-06-16T05:07:18.755Z,20.10
2018-06-16T05:09:46.843Z,20.10
2018-06-16T05:12:14.923Z,20.20
2018-06-16T05:14:43.028Z,20.20
2018-06-16T05:17:11.182Z,20.30
2018-06-16T05:19:39.300Z,20.30
2018-06-16T05:22:07.416Z,20.40
2018-06-16T05:24:35.520Z,20.40
2018-06-16T05:27:03.611Z,20.50
2018-06-16T05:29:31.749Z,20.60
2018-06-16T05:31:59.849Z,20.70
2018-06-16T05:34:27.999Z,20.70
2018-06-16T05:36:56.096Z,20.80
2018-06-16T05:39:24.307Z,20.90
2018-06-16T05:41:52.394Z,21.00
2018-06-16T05:44:20.526Z,21.00
2018-06-16T05:46:48.627Z,21.10
2018-06-16T05:49:16.739Z,21.10
2018-06-16T05:51:44.844Z,21.20
2018-06-16T05:54:12.969Z,21.20
2018-06-16T05:56:41.055Z,21.30
2018-06-16T05:59:09.159Z,21.30
2018-06-16T06:01:37.242Z,21.40
2018-06-16T06:04:05.552Z,21.50
2018-06-16T06:06:33.664Z,21.60
2018-06-16T06:09:01.778Z,21.60
2018-06-16T06:11:29.868Z,21.70
2018-06-16T06:13:58.111Z,21.80
2018-06-16T06:16:26.176Z,21.80
2018-06-16T06:18:54.526Z,21.90
2018-06-16T06:21:22.611Z,22.00
2018-06-16T06:23:50.712Z,22.10
2018-06-16T06:26:18.825Z,22.20
2018-06-16T06:28:46.926Z,22.30
2018-06-16T06:31:15.055Z,22.40
2018-06-16T06:33:43.267Z,22.50
2018-06-16T06:36:11.355Z,22.60
2018-06-16T06:38:39.435Z,22.60
2018-06-16T06:43:35.422Z,22.70
2018-06-16T06:46:03.535Z,22.80
2018-06-16T06:48:31.679Z,22.90
2018-06-16T06:50:59.775Z,22.90
2018-06-16T06:53:27.896Z,23.00
2018-06-16T06:58:23.838Z,23.10
2018-06-16T07:00:51.960Z,23.10
2018-06-16T07:03:20.043Z,23.20
2018-06-16T07:05:48.140Z,23.20
2018-06-16T07:08:16.244Z,23.30
2018-06-16T07:10:44.434Z,23.30
2018-06-16T07:13:12.485Z,23.40
2018-06-16T07:15:40.599Z,23.40
2018-06-16T07:18:08.714Z,23.50
2018-06-16T07:20:36.799Z,23.50
2018-06-16T07:23:04.891Z,23.60
2018-06-16T07:25:32.978Z,23.60
2018-06-16T07:30:28.927Z,23.80
2018-06-16T07:32:57.020Z,23.80
2018-06-16T07:35:25.131Z,23.90
2018-06-16T07:37:53.244Z,24.00
2018-06-16T07:40:21.337Z,24.10
2018-06-16T07:45:17.590Z,24.20
2018-06-16T07:50:20.296Z,24.40
2018-06-16T07:52:48.363Z,24.50
2018-06-16T07:55:16.503Z,24.50
2018-06-16T07:57:44.625Z,24.60
2018-06-16T08:00:12.736Z,24.70
2018-06-16T08:02:40.817Z,24.80
2018-06-16T08:05:09.132Z,24.80
2018-06-16T08:07:37.237Z,24.90
2018-06-16T08:10:05.371Z,25.00
2018-06-16T08:15:01.635Z,25.20
2018-06-16T08:17:29.737Z,25.30
2018-06-16T08:19:57.885Z,25.40
2018-06-16T08:22:26.028Z,25.60
2018-06-16T08:24:54.425Z,25.60
2018-06-16T08:27:22.528Z,25.80
2018-06-16T08:29:50.639Z,25.90
2018-06-16T08:32:18.915Z,26.00
2018-06-16T08:34:47.272Z,26.00
2018-06-16T08:37:15.319Z,26.10
2018-06-16T08:39:43.409Z,26.20
2018-06-16T08:42:11.497Z,26.30
2018-06-16T08:44:39.659Z,26.30
2018-06-16T08:47:07.772Z,26.40
2018-06-16T08:49:35.975Z,26.40
2018-06-16T08:52:04.188Z,26.50
2018-06-16T08:54:32.272Z,26.50
2018-06-16T08:57:00.392Z,26.60
2018-06-16T08:59:28.492Z,26.60
2018-06-16T09:01:56.635Z,26.70
2018-06-16T09:06:52.607Z,26.80
2018-06-16T09:09:20.727Z,26.80
2018-06-16T09:11:48.843Z,26.90
2018-06-16T09:14:16.925Z,26.90
2018-06-16T09:16:45.013Z,27.00
2018-06-16T09:19:13.106Z,27.10
2018-06-16T09:24:09.105Z,27.10
2018-06-16T09:29:05.380Z,27.20
2018-06-16T09:31:34.283Z,27.20
2018-06-16T09:34:02.391Z,27.20
2018-06-16T09:36:30.483Z,27.30
2018-06-16T09:38:58.577Z,27.30
2018-06-16T09:41:26.719Z,27.30
2018-06-16T09:43:54.795Z,27.30
2018-06-16T09:48:50.766Z,27.40
2018-06-16T09:51:18.868Z,27.40
2018-06-16T09:53:46.963Z,27.40
2018-06-16T09:56:15.055Z,27.50
2018-06-16T09:58:43.176Z,27.50
2018-06-16T10:01:11.228Z,27.50
2018-06-16T10:03:39.345Z,27.60
2018-06-16T10:06:07.441Z,27.60
2018-06-16T10:08:35.541Z,27.70
2018-06-16T10:11:03.627Z,27.70
2018-06-16T10:13:31.748Z,27.70
2018-06-16T10:15:59.877Z,27.80
2018-06-16T10:18:27.908Z,27.80
2018-06-16T10:20:56.017Z,27.90
2018-06-16T10:23:24.128Z,27.90
2018-06-16T10:25:52.211Z,28.00
2018-06-16T10:28:20.331Z,28.10
2018-06-16T10:30:48.423Z,28.20
2018-06-16T10:33:16.528Z,28.30
2018-06-16T10:35:44.616Z,28.40
2018-06-16T10:38:12.699Z,28.50
2018-06-16T10:40:40.807Z,28.60
2018-06-16T10:43:08.895Z,28.70
2018-06-16T10:45:36.980Z,28.70
2018-06-16T10:48:05.077Z,28.80
2018-06-16T10:50:33.175Z,28.90
2018-06-16T10:53:01.284Z,28.90
2018-06-16T10:55:29.366Z,28.90
2018-06-16T10:57:57.461Z,29.00
2018-06-16T11:00:25.555Z,29.00
2018-06-16T11:02:53.647Z,29.10
2018-06-16T11:05:21.750Z,29.10
2018-06-16T11:07:49.876Z,29.20
2018-06-16T11:10:17.935Z,29.20
2018-06-16T11:12:46.032Z,29.30
2018-06-16T11:15:14.104Z,29.30
2018-06-16T11:17:42.188Z,29.40
2018-06-16T11:22:38.164Z,29.50
2018-06-16T11:25:06.444Z,29.60
2018-06-16T11:27:34.541Z,29.60
2018-06-16T11:30:02.650Z,29.60
2018-06-16T11:32:30.772Z,29.60
2018-06-16T11:37:26.739Z,29.50
2018-06-16T11:39:54.859Z,29.50
2018-06-16T11:42:22.963Z,29.50
2018-06-16T11:44:51.316Z,29.50
2018-06-16T11:47:19.443Z,29.50
2018-06-16T11:49:47.536Z,29.50
2018-06-16T11:52:15.619Z,29.40
2018-06-16T11:54:43.717Z,29.40
2018-06-16T11:57:11.835Z,29.40
2018-06-16T12:02:07.881Z,29.30
2018-06-16T12:04:35.988Z,29.30
2018-06-16T12:07:04.079Z,29.30
2018-06-16T12:09:32.175Z,29.30
2018-06-16T12:12:00.243Z,29.20
2018-06-16T12:14:28.365Z,29.20
2018-06-16T12:16:56.448Z,29.20
2018-06-16T12:19:24.544Z,29.20
2018-06-16T12:21:52.631Z,29.10
2018-06-16T12:24:20.753Z,29.00
2018-06-16T12:26:48.960Z,29.00
2018-06-16T12:29:17.075Z,28.90
2018-06-16T12:31:45.164Z,28.90
2018-06-16T12:34:13.260Z,28.80
2018-06-16T12:36:41.373Z,28.70
2018-06-16T12:39:10.500Z,28.70
2018-06-16T12:41:38.599Z,28.70
2018-06-16T12:44:06.804Z,28.70
2018-06-16T12:46:34.891Z,28.70
2018-06-16T12:49:02.988Z,28.70
2018-06-16T12:51:31.095Z,28.70
2018-06-16T12:53:59.235Z,28.80
2018-06-16T12:56:27.793Z,28.80
2018-06-16T12:58:55.864Z,28.80
2018-06-16T13:01:23.959Z,28.90
2018-06-16T13:03:52.047Z,29.00
2018-06-16T13:06:20.128Z,29.00
2018-06-16T13:08:48.225Z,29.00
2018-06-16T13:11:16.324Z,29.00
2018-06-16T13:13:44.427Z,28.90
2018-06-16T13:16:12.532Z,28.80
2018-06-16T13:18:40.616Z,28.80
2018-06-16T13:21:08.706Z,28.70
2018-06-16T13:23:37.375Z,28.70
2018-06-16T13:26:05.446Z,28.70
2018-06-16T13:28:33.544Z,28.80
2018-06-16T13:31:01.639Z,28.80
2018-06-16T13:33:29.735Z,28.90
2018-06-16T13:35:57.855Z,28.90
2018-06-16T13:38:25.927Z,29.00
2018-06-16T13:40:54.055Z,29.00
2018-06-16T13:43:22.141Z,29.10
2018-06-16T13:45:50.243Z,29.20
2018-06-16T13:48:18.412Z,29.30
2018-06-16T13:50:46.591Z,29.30
2018-06-16T13:53:14.686Z,29.40
2018-06-16T13:55:42.856Z,29.50
2018-06-16T13:58:10.951Z,29.50
2018-06-16T14:00:39.075Z,29.60
2018-06-16T14:03:07.150Z,29.60
2018-06-16T14:08:03.148Z,29.70
2018-06-16T14:10:31.251Z,29.80
2018-06-16T14:12:59.347Z,29.80
2018-06-16T14:15:27.448Z,29.90
2018-06-16T14:17:55.557Z,30.00
2018-06-16T14:20:23.764Z,30.10
2018-06-16T14:22:51.855Z,30.00
2018-06-16T14:25:19.980Z,30.00
2018-06-16T14:27:48.074Z,30.00
2018-06-16T14:30:16.186Z,29.90
2018-06-16T14:32:44.285Z,29.90
2018-06-16T14:35:12.376Z,29.80
2018-06-16T14:37:40.486Z,29.80
2018-06-16T14:40:08.584Z,29.80
2018-06-16T14:42:36.704Z,29.80
2018-06-16T14:45:04.871Z,29.70
2018-06-16T14:47:32.979Z,29.70
2018-06-16T14:50:01.228Z,29.70
2018-06-16T14:52:29.302Z,29.60
2018-06-16T14:54:57.400Z,29.50
2018-06-16T15:02:21.263Z,29.40
2018-06-16T15:04:49.587Z,29.30
2018-06-16T15:09:52.050Z,29.30
2018-06-16T15:12:20.171Z,29.20
2018-06-16T15:14:48.263Z,29.30
2018-06-16T15:17:16.356Z,29.30
2018-06-16T15:19:44.441Z,29.30
2018-06-16T15:22:12.529Z,29.30
2018-06-16T15:24:40.620Z,29.30
2018-06-16T15:27:08.835Z,29.30
2018-06-16T15:29:36.937Z,29.30
2018-06-16T15:32:05.029Z,29.30
2018-06-16T15:34:33.133Z,29.30
2018-06-16T15:37:01.244Z,29.30
2018-06-16T15:39:29.375Z,29.20
2018-06-16T15:41:57.432Z,29.20
2018-06-16T15:44:25.615Z,29.20
2018-06-16T15:46:53.712Z,29.10
2018-06-16T15:49:21.783Z,29.10
2018-06-16T15:51:49.904Z,29.00
2018-06-16T15:54:18.013Z,29.00
2018-06-16T15:56:46.139Z,28.90
2018-06-16T15:59:14.289Z,28.90
2018-06-16T16:01:42.387Z,28.80
2018-06-16T16:04:10.513Z,28.80
2018-06-16T16:06:38.608Z,28.70
2018-06-16T16:09:07.236Z,28.70
2018-06-16T16:11:35.743Z,28.70
2018-06-16T16:14:03.986Z,28.60
2018-06-16T16:16:32.100Z,28.50
2018-06-16T16:19:00.191Z,28.50
2018-06-16T16:21:28.336Z,28.50
2018-06-16T16:23:56.441Z,28.40
2018-06-16T16:26:24.540Z,28.40
2018-06-16T16:28:52.652Z,28.40
2018-06-16T16:31:20.761Z,28.40
2018-06-16T16:33:48.876Z,28.40
2018-06-16T16:36:17.010Z,28.50
2018-06-16T16:38:45.127Z,28.50
2018-06-16T16:41:13.199Z,28.50
2018-06-16T16:43:41.333Z,28.50
2018-06-16T16:46:09.403Z,28.50
2018-06-16T16:48:37.507Z,28.50
2018-06-16T16:51:05.635Z,28.50
2018-06-16T16:53:33.722Z,28.50
2018-06-16T16:56:01.847Z,28.60
2018-06-16T17:01:04.631Z,28.60
2018-06-16T17:03:32.738Z,28.60
2018-06-16T17:06:00.904Z,28.70
2018-06-16T17:08:29.359Z,28.60
2018-06-16T17:10:57.475Z,28.70
2018-06-16T17:13:25.596Z,28.60
2018-06-16T17:15:53.695Z,28.60
2018-06-16T17:18:21.803Z,28.60
2018-06-16T17:20:49.999Z,28.60
2018-06-16T17:23:18.450Z,28.60
2018-06-16T17:25:46.567Z,28.50
2018-06-16T17:28:14.656Z,28.50
2018-06-16T17:30:42.787Z,28.60
2018-06-16T17:33:10.897Z,28.50
2018-06-16T17:35:39.073Z,28.50
2018-06-16T17:38:07.449Z,28.50
2018-06-16T17:40:35.556Z,28.50
2018-06-16T17:43:03.675Z,28.40
2018-06-16T17:45:31.777Z,28.40
2018-06-16T17:50:27.759Z,28.40
2018-06-16T17:55:24.495Z,28.30
2018-06-16T17:57:52.590Z,28.40
2018-06-16T18:00:20.723Z,28.40
2018-06-16T18:02:48.918Z,28.40
2018-06-16T18:05:17.026Z,28.30
2018-06-16T18:07:45.112Z,28.30
2018-06-16T18:10:13.288Z,28.30
2018-06-16T18:12:41.391Z,28.30
2018-06-16T18:15:09.473Z,28.30
2018-06-16T18:17:37.579Z,28.20
2018-06-16T18:20:05.796Z,28.20
2018-06-16T18:22:33.898Z,28.20
2018-06-16T18:25:02.025Z,28.10
2018-06-16T18:27:30.132Z,28.10
2018-06-16T18:32:26.156Z,28.00
2018-06-16T18:34:54.271Z,27.90
2018-06-16T18:37:22.352Z,27.90
2018-06-16T18:39:50.458Z,27.90
2018-06-16T18:42:18.556Z,27.80
2018-06-16T18:44:46.655Z,27.80
2018-06-16T18:47:14.751Z,27.70
2018-06-16T18:49:42.862Z,27.70
2018-06-16T18:52:10.948Z,27.70
2018-06-16T18:54:39.047Z,27.60
2018-06-16T18:57:07.131Z,27.60
2018-06-16T18:59:35.239Z,27.50
2018-06-16T19:02:03.331Z,27.50
2018-06-16T19:04:31.460Z,27.40
2018-06-16T19:06:59.608Z,27.40
2018-06-16T19:09:27.711Z,27.30
2018-06-16T19:11:55.811Z,27.20
2018-06-16T19:14:23.887Z,27.20
2018-06-16T19:16:52.071Z,27.10
2018-06-16T19:24:16.035Z,26.90
2018-06-16T19:26:44.151Z,26.90
2018-06-16T19:31:40.195Z,26.70
2018-06-16T19:34:08.291Z,26.70
2018-06-16T19:36:36.383Z,26.60
2018-06-16T19:39:07.110Z,26.60
2018-06-16T19:41:35.212Z,26.50
2018-06-16T19:44:03.291Z,26.50
2018-06-16T19:51:27.285Z,26.30
2018-06-16T19:56:23.334Z,26.20
2018-06-16T19:58:51.423Z,26.10
2018-06-16T20:01:19.528Z,26.10
2018-06-16T20:03:47.628Z,26.00
2018-06-16T20:06:15.727Z,26.00
2018-06-16T20:08:43.819Z,25.90
2018-06-16T20:11:11.911Z,25.80
2018-06-16T20:13:40.025Z,25.80
2018-06-16T20:16:08.132Z,25.80
2018-06-16T20:18:36.265Z,25.70
2018-06-16T20:21:04.375Z,25.60
2018-06-16T20:23:32.466Z,25.60
2018-06-16T20:26:00.576Z,25.60
2018-06-16T20:28:28.688Z,25.50
2018-06-16T20:30:56.994Z,25.40
2018-06-16T20:33:25.096Z,25.40
2018-06-16T20:35:53.213Z,25.30
2018-06-16T20:40:49.512Z,25.20
2018-06-16T20:45:46.071Z,25.10
2018-06-16T20:48:14.293Z,25.00
2018-06-16T20:50:42.371Z,25.00
2018-06-16T20:53:10.481Z,24.90
2018-06-16T20:55:38.672Z,24.90
2018-06-16T20:58:07.551Z,24.80
2018-06-16T21:05:31.463Z,24.60
2018-06-16T21:07:59.576Z,24.40
2018-06-16T21:10:27.672Z,24.40
2018-06-16T21:12:56.788Z,24.30
2018-06-16T21:15:24.963Z,24.30
2018-06-16T21:17:53.056Z,24.30
2018-06-16T21:20:21.152Z,24.30
2018-06-16T21:25:23.840Z,24.20
2018-06-16T21:27:58.311Z,24.20
2018-06-16T21:30:26.409Z,24.20
2018-06-16T21:32:54.470Z,24.10
2018-06-16T21:35:29.209Z,24.00
2018-06-16T21:37:57.292Z,23.90
2018-06-16T21:40:25.504Z,23.90
2018-06-16T21:42:53.579Z,23.80
2018-06-16T21:45:21.670Z,23.80
2018-06-16T21:50:18.526Z,23.70
2018-06-16T21:52:46.668Z,23.70
2018-06-16T22:00:12.451Z,23.60
2018-06-16T22:02:40.540Z,23.60
2018-06-16T22:05:08.863Z,23.50
2018-06-16T22:07:36.956Z,23.50
2018-06-16T22:10:05.719Z,23.50
2018-06-16T22:15:01.723Z,23.40
2018-06-16T22:17:29.825Z,23.30
2018-06-16T22:19:57.932Z,23.30
2018-06-16T22:22:26.016Z,23.30
2018-06-16T22:27:35.305Z,23.30
2018-06-16T22:30:03.504Z,23.20
2018-06-16T22:32:31.588Z,23.20
2018-06-16T22:37:27.731Z,23.20
2018-06-16T22:39:55.824Z,23.20
2018-06-16T22:42:23.933Z,23.20
2018-06-16T22:44:52.048Z,23.20
2018-06-16T22:47:20.152Z,23.20
2018-06-16T22:49:48.284Z,23.10
2018-06-16T22:52:16.495Z,23.10
2018-06-16T22:54:44.606Z,23.10
2018-06-16T22:57:12.708Z,23.10
2018-06-16T22:59:40.828Z,23.10
2018-06-16T23:02:09.144Z,23.00
2018-06-16T23:04:37.212Z,23.00
2018-06-16T23:07:05.314Z,23.00
2018-06-16T23:09:33.399Z,23.00
2018-06-16T23:12:01.492Z,23.00
2018-06-16T23:14:29.580Z,23.00
2018-06-16T23:16:57.662Z,22.90
2018-06-16T23:19:25.898Z,22.90
2018-06-16T23:21:54.004Z,23.00
2018-06-16T23:24:22.112Z,22.90
2018-06-16T23:26:50.216Z,23.00
2018-06-16T23:29:18.361Z,23.00
2018-06-16T23:31:46.441Z,22.90
2018-06-16T23:34:14.520Z,22.90
2018-06-16T23:36:42.610Z,23.00
2018-06-16T23:39:12.324Z,23.00
2018-06-16T23:41:40.816Z,23.00
2018-06-16T23:44:08.923Z,23.00
2018-06-16T23:46:37.430Z,23.00
2018-06-16T23:49:05.940Z,22.90
2018-06-16T23:51:34.068Z,22.90
2018-06-16T23:56:30.065Z,22.90
